Time;durP1;ratioP1;P1;durP2;ratioP2;P2;SDS_P1;SDS_P2;PMS_P1;PMS_P2;Temp;Humidity;BMP_temperature;BMP_pressure;BME280_temperature;BME280_humidity;BME280_pressure;Samples;Min_cycle;Max_cycle;Signal;HPM_P1;HPM_P2
2023/05/16 00:01:01;;;;;;;;;;;;;;;17.21;70.15;100141.75;4946894;28;20781;-81
2023/05/16 00:03:33;;;;;;;;;;;;;;;17.22;69.75;100140.72;4938286;28;19925;-82
2023/05/16 00:06:03;;;;;;;;;;;;;;;17.18;69.97;100143.97;4870083;28;20152;-82
2023/05/16 00:08:34;;;;;;;;;;;;;;;16.84;70.13;100089.97;4891324;28;20142;-82
2023/05/16 00:11:01;;;;;;;;;;;;;;;17.12;70.51;100140.19;4926188;28;19922;-81
2023/05/16 00:13:29;;;;;;;;;;;;;;;17.22;69.88;100129.97;4951765;28;20940;-81
2023/05/16 00:15:56;;;;;;;;;;;;;;;17.20;69.92;100142.75;4971566;28;19935;-81
2023/05/16 00:18:24;;;;;;;;;;;;;;;17.21;69.75;100131.03;4950441;28;20011;-80
2023/05/16 00:20:52;;;;;;;;;;;;;;;17.31;69.03;100130.69;4919432;28;20121;-82
2023/05/16 00:23:21;;;;;;;;;;;;;;;17.26;69.65;100123.22;4928839;28;19932;-82
2023/05/16 00:25:51;;;;;;;;;;;;;;;17.24;69.63;100119.91;4970908;28;19921;-81
2023/05/16 00:28:18;;;;;;;;;;;;;;;17.20;69.98;100125.84;4933182;28;20157;-82
2023/05/16 00:30:44;;;;;;;;;;;;;;;17.22;69.48;100127.31;4966370;28;20391;-82
2023/05/16 00:33:11;;;;;;;;;;;;;;;17.33;69.01;100130.50;4929998;28;19976;-82
2023/05/16 00:35:38;;;;;;;;;;;;;;;17.33;68.84;100122.44;4966201;28;20117;-82
2023/05/16 00:38:05;;;;;;;;;;;;;;;17.30;69.10;100118.28;4937020;28;19992;-82
2023/05/16 00:40:37;;;;;;;;;;;;;;;17.35;68.99;100128.44;4911476;28;20233;-81
2023/05/16 00:43:07;;;;;;;;;;;;;;;17.33;69.31;100138.53;4913300;28;19921;-82
2023/05/16 00:45:37;;;;;;;;;;;;;;;17.32;69.42;100121.63;4924319;28;19925;-82
2023/05/16 00:48:08;;;;;;;;;;;;;;;17.31;69.44;100106.56;4941701;28;20307;-82
2023/05/16 00:50:36;;;;;;;;;;;;;;;17.26;69.31;100112.50;4937745;28;19976;-82
2023/05/16 00:53:03;;;;;;;;;;;;;;;17.27;69.81;100111.47;4929497;28;20288;-82
2023/05/16 00:55:31;;;;;;;;;;;;;;;16.98;69.61;100049.91;4937546;28;20635;-81
2023/05/16 00:57:58;;;;;;;;;;;;;;;17.30;70.23;100103.03;4952608;28;20264;-82
2023/05/16 01:00:29;;;;;;;;;;;;;;;17.35;69.38;100102.44;4923435;28;20091;-82
2023/05/16 01:03:02;;;;;;;;;;;;;;;17.28;70.28;100113.13;4925431;28;20236;-82
2023/05/16 01:05:29;;;;;;;;;;;;;;;17.24;70.46;100105.66;4937553;28;20346;-81
2023/05/16 01:07:56;;;;;;;;;;;;;;;17.24;70.23;100109.16;4966083;28;20756;-82
2023/05/16 01:10:23;;;;;;;;;;;;;;;17.26;70.52;100095.56;4958595;28;19975;-81
2023/05/16 01:13:01;;;;;;;;;;;;;;;17.32;69.60;100092.09;4936885;28;20091;-81
2023/05/16 01:15:31;;;;;;;;;;;;;;;17.27;69.97;100084.63;4933332;28;20122;-82
2023/05/16 01:18:16;;;;;;;;;;;;;;;17.27;69.94;100076.59;4930528;28;19929;-82
2023/05/16 01:20:52;;;;;;;;;;;;;;;17.26;69.95;100074.94;4946777;28;19968;-81
2023/05/16 01:23:37;;;;;;;;;;;;;;;16.58;69.92;99944.97;4935563;28;20415;-82
2023/05/16 01:26:10;;;;;;;;;;;;;;;17.27;69.67;100071.22;4964954;28;19921;-81
2023/05/16 01:28:39;;;;;;;;;;;;;;;17.22;70.67;100075.50;4953082;28;20008;-83
2023/05/16 01:31:07;;;;;;;;;;;;;;;17.25;70.37;100065.22;4952648;28;19922;-82
2023/05/16 01:33:34;;;;;;;;;;;;;;;17.28;70.45;100053.25;4950391;28;20608;-82
2023/05/16 01:36:22;;;;;;;;;;;;;;;17.25;70.25;100048.28;4908410;28;19928;-82
2023/05/16 01:38:57;;;;;;;;;;;;;;;17.23;70.90;100029.72;4927056;28;20116;-82
2023/05/16 01:41:26;;;;;;;;;;;;;;;17.23;70.56;100021.69;4926514;28;19932;-81
2023/05/16 01:43:59;;;;;;;;;;;;;;;17.26;70.55;100023.97;4939760;28;20284;-82
2023/05/16 01:46:28;;;;;;;;;;;;;;;17.23;71.22;100021.69;4945509;28;19932;-82
2023/05/16 01:49:08;;;;;;;;;;;;;;;17.23;71.17;100015.47;4943335;28;19925;-82
2023/05/16 01:51:38;;;;;;;;;;;;;;;17.24;70.91;100007.25;4956971;28;20411;-82
2023/05/16 01:54:09;;;;;;;;;;;;;;;17.24;70.68;100011.78;4941291;28;19929;-81
2023/05/16 01:56:36;;;;;;;;;;;;;;;17.26;70.57;100007.06;4938290;28;20157;-81
2023/05/16 01:59:07;;;;;;;;;;;;;;;17.26;71.15;99999.00;4950810;28;19933;-81
2023/05/16 02:01:34;;;;;;;;;;;;;;;17.29;70.82;100004.78;4923418;28;19929;-81
2023/05/16 02:04:01;;;;;;;;;;;;;;;17.34;69.96;100004.22;4953648;28;20065;-82
2023/05/16 02:06:27;;;;;;;;;;;;;;;17.21;70.63;100004.94;4970973;28;20279;-81
2023/05/16 02:08:57;;;;;;;;;;;;;;;17.14;71.06;100009.44;4970148;28;19928;-81
2023/05/16 02:11:24;;;;;;;;;;;;;;;17.12;71.56;100007.97;4969966;28;19926;-81
2023/05/16 02:13:51;;;;;;;;;;;;;;;17.11;71.66;100015.16;4983823;28;19966;-81
2023/05/16 02:16:17;;;;;;;;;;;;;;;17.05;71.95;100016.78;4967850;28;19956;-82
2023/05/16 02:18:44;;;;;;;;;;;;;;;17.04;72.51;100014.31;4969345;28;20356;-82
2023/05/16 02:21:11;;;;;;;;;;;;;;;16.71;73.42;99971.06;4988547;28;20359;-81
2023/05/16 02:23:37;;;;;;;;;;;;;;;17.05;72.83;100016.78;4972366;28;19925;-82
2023/05/16 02:26:05;;;;;;;;;;;;;;;17.07;73.88;100038.03;4968968;28;19922;-82
2023/05/16 02:28:33;;;;;;;;;;;;;;;17.05;74.71;100057.00;4968587;28;19926;-82
2023/05/16 02:31:00;;;;;;;;;;;;;;;17.03;75.45;100048.31;4976778;28;19925;-81
2023/05/16 02:33:27;;;;;;;;;;;;;;;17.03;77.67;100050.16;4955225;28;20372;-80
2023/05/16 02:35:54;;;;;;;;;;;;;;;17.04;76.95;100041.94;4960444;28;19926;-80
2023/05/16 02:38:20;;;;;;;;;;;;;;;17.00;77.01;100053.25;4958474;28;20350;-81
2023/05/16 02:40:47;;;;;;;;;;;;;;;17.01;78.00;100058.38;4966271;28;20356;-81
2023/05/16 02:43:14;;;;;;;;;;;;;;;16.97;78.03;100053.63;4968353;28;19921;-80
2023/05/16 02:45:41;;;;;;;;;;;;;;;16.96;78.31;100051.94;4978767;28;19921;-81
2023/05/16 02:48:10;;;;;;;;;;;;;;;16.86;78.47;100061.13;4977567;28;19925;-81
2023/05/16 02:50:39;;;;;;;;;;;;;;;16.92;79.06;100058.72;4956408;28;19926;-80
2023/05/16 02:53:08;;;;;;;;;;;;;;;16.93;78.82;100068.44;4958040;28;19929;-79
2023/05/16 02:55:34;;;;;;;;;;;;;;;16.99;78.98;100076.53;4946535;28;20024;-83
2023/05/16 02:58:01;;;;;;;;;;;;;;;17.02;77.74;100059.25;4951416;28;19968;-83
2023/05/16 03:00:29;;;;;;;;;;;;;;;16.42;76.73;99959.44;4965658;28;20434;-83
2023/05/16 03:02:58;;;;;;;;;;;;;;;16.87;77.02;100062.81;4954932;28;19944;-81
2023/05/16 03:05:26;;;;;;;;;;;;;;;16.97;76.94;100072.41;4941520;28;19922;-83
2023/05/16 03:07:54;;;;;;;;;;;;;;;16.77;77.99;100067.63;4943961;28;19929;-83
2023/05/16 03:10:21;;;;;;;;;;;;;;;16.59;78.58;100069.88;4952866;28;19925;-81
2023/05/16 03:12:53;;;;;;;;;;;;;;;16.56;79.55;100075.63;4948562;28;19964;-83
2023/05/16 03:15:20;;;;;;;;;;;;;;;16.60;78.63;100076.91;4967650;28;20526;-82
2023/05/16 03:17:47;;;;;;;;;;;;;;;16.43;80.31;100081.63;4969923;28;19931;-82
2023/05/16 03:20:14;;;;;;;;;;;;;;;16.39;79.33;100078.50;4967446;28;20349;-81
2023/05/16 03:22:41;;;;;;;;;;;;;;;16.41;79.28;100081.84;4978317;28;19925;-83
2023/05/16 03:25:09;;;;;;;;;;;;;;;16.25;80.49;100076.69;4977741;28;19922;-83
2023/05/16 03:27:38;;;;;;;;;;;;;;;16.31;79.83;100094.69;4966123;28;20198;-83
2023/05/16 03:30:09;;;;;;;;;;;;;;;15.96;79.36;100043.53;4957972;28;19976;-85
2023/05/16 03:32:38;;;;;;;;;;;;;;;16.16;80.05;100081.28;4959052;28;19925;-82
2023/05/16 03:35:05;;;;;;;;;;;;;;;16.11;79.88;100094.41;4970062;28;19929;-85
2023/05/16 03:37:37;;;;;;;;;;;;;;;15.73;80.11;100037.47;4934315;28;20630;-85
2023/05/16 03:40:10;;;;;;;;;;;;;;;16.20;78.05;100093.31;4946565;28;20049;-84
2023/05/16 03:42:36;;;;;;;;;;;;;;;15.96;78.29;100096.25;4964067;28;20206;-83
2023/05/16 03:45:06;;;;;;;;;;;;;;;15.86;80.31;100099.22;4955096;28;19929;-83
2023/05/16 03:47:33;;;;;;;;;;;;;;;15.77;80.91;100103.78;4948254;28;20531;-84
2023/05/16 03:49:59;;;;;;;;;;;;;;;15.82;78.78;100079.16;4985279;28;20012;-83
2023/05/16 03:52:26;;;;;;;;;;;;;;;15.66;80.54;100071.28;4956553;28;20404;-84
2023/05/16 03:54:52;;;;;;;;;;;;;;;15.56;81.45;100069.69;4944807;28;19948;-82
2023/05/16 03:57:19;;;;;;;;;;;;;;;15.59;81.90;100080.03;4943402;28;19925;-83
2023/05/16 03:59:46;;;;;;;;;;;;;;;15.65;80.24;100077.66;4974029;28;20399;-83
2023/05/16 04:02:12;;;;;;;;;;;;;;;15.29;80.35;100014.97;4955106;28;19934;-83
2023/05/16 04:04:39;;;;;;;;;;;;;;;14.78;80.92;99947.06;4937596;28;19921;-82
2023/05/16 04:07:06;;;;;;;;;;;;;;;15.30;81.45;100042.53;4964369;28;20048;-84
2023/05/16 04:09:32;;;;;;;;;;;;;;;15.37;80.60;100043.47;4957186;28;19926;-84
2023/05/16 04:12:00;;;;;;;;;;;;;;;15.41;79.82;100031.38;4947252;28;19956;-82
2023/05/16 04:14:27;;;;;;;;;;;;;;;15.41;79.91;100020.69;4929034;28;19922;-82
2023/05/16 04:16:57;;;;;;;;;;;;;;;15.33;79.45;100021.59;4923470;28;19926;-83
2023/05/16 04:19:24;;;;;;;;;;;;;;;15.33;78.77;100023.44;4938360;28;19925;-83
2023/05/16 04:21:51;;;;;;;;;;;;;;;15.32;79.15;100025.28;4926148;28;20036;-83
2023/05/16 04:24:20;;;;;;;;;;;;;;;15.23;79.56;100023.69;4935400;28;19926;-83
2023/05/16 04:26:47;;;;;;;;;;;;;;;15.33;79.64;100023.44;4926941;28;19933;-83
2023/05/16 04:29:13;;;;;;;;;;;;;;;15.37;79.76;100011.38;4949508;28;20370;-85
2023/05/16 04:31:40;;;;;;;;;;;;;;;15.42;79.55;100014.34;4951737;28;19922;-82
2023/05/16 04:34:06;;;;;;;;;;;;;;;15.29;80.85;100016.78;4946696;28;19922;-83
2023/05/16 04:36:34;;;;;;;;;;;;;;;15.21;81.01;100028.38;4970490;28;19976;-84
2023/05/16 04:39:05;;;;;;;;;;;;;;;15.20;80.38;100024.06;4945130;28;19954;-84
2023/05/16 04:41:34;;;;;;;;;;;;;;;14.93;81.14;99975.50;4949877;28;19929;-85
2023/05/16 04:44:03;;;;;;;;;;;;;;;15.11;80.99;100020.63;4924550;28;20311;-84
2023/05/16 04:46:29;;;;;;;;;;;;;;;15.10;81.34;100032.34;4940036;28;19968;-83
2023/05/16 04:48:56;;;;;;;;;;;;;;;15.09;82.79;100038.69;4933710;28;19925;-84
2023/05/16 04:51:23;;;;;;;;;;;;;;;15.17;82.21;100033.28;4980230;28;20027;-83
2023/05/16 04:53:52;;;;;;;;;;;;;;;15.17;83.04;100033.28;4956016;28;20422;-84
2023/05/16 04:56:19;;;;;;;;;;;;;;;15.11;83.67;100031.31;4950732;28;20274;-84
2023/05/16 04:58:46;;;;;;;;;;;;;;;15.08;84.00;100034.34;4948255;28;20294;-84
2023/05/16 05:01:12;;;;;;;;;;;;;;;15.06;84.64;100023.00;4965742;28;19925;-83
2023/05/16 05:03:39;;;;;;;;;;;;;;;15.02;84.62;100029.72;4954312;28;19922;-83
2023/05/16 05:06:09;;;;;;;;;;;;;;;15.00;84.28;100020.22;4948448;28;19973;-84
2023/05/16 05:08:35;;;;;;;;;;;;;;;15.06;83.83;100019.50;4954410;28;20379;-83
2023/05/16 05:11:02;;;;;;;;;;;;;;;15.02;84.42;100019.00;4961166;28;19922;-83
2023/05/16 05:13:29;;;;;;;;;;;;;;;15.04;83.67;100017.00;4941513;28;20290;-82
2023/05/16 05:15:55;;;;;;;;;;;;;;;14.99;84.48;100022.06;4916612;29;19922;-81
2023/05/16 05:18:22;;;;;;;;;;;;;;;14.95;84.98;100034.09;4930406;28;19926;-82
2023/05/16 05:20:49;;;;;;;;;;;;;;;14.95;84.90;100036.78;4960507;28;19926;-85
2023/05/16 05:23:15;;;;;;;;;;;;;;;14.98;84.88;100032.91;4943727;28;19922;-82
2023/05/16 05:25:42;;;;;;;;;;;;;;;15.01;83.54;100037.94;4958340;28;20376;-82
2023/05/16 05:28:08;;;;;;;;;;;;;;;14.92;85.64;100029.13;4946727;28;20049;-82
2023/05/16 05:30:35;;;;;;;;;;;;;;;14.91;84.98;100030.97;4941127;28;19926;-84
2023/05/16 05:33:02;;;;;;;;;;;;;;;14.90;85.20;100041.84;4940630;28;19977;-82
2023/05/16 05:35:28;;;;;;;;;;;;;;;14.93;85.66;100047.66;4920775;28;20265;-83
2023/05/16 05:38:01;;;;;;;;;;;;;;;14.92;85.81;100048.66;4920257;28;20329;-81
2023/05/16 05:40:38;;;;;;;;;;;;;;;14.96;85.79;100046.47;4933286;28;20585;-84
2023/05/16 05:43:05;;;;;;;;;;;;;;;14.93;86.12;100036.16;4941993;28;19922;-84
2023/05/16 05:45:31;;;;;;;;;;;;;;;14.68;84.97;99964.16;4917698;28;19965;-85
2023/05/16 05:47:58;;;;;;;;;;;;;;;14.93;86.53;100004.09;4927894;28;19926;-86
2023/05/16 05:50:25;;;;;;;;;;;;;;;14.84;87.23;100000.63;4921485;28;20288;-85
2023/05/16 05:52:52;;;;;;;;;;;;;;;14.79;86.53;99984.31;4909500;29;19930;-85
2023/05/16 05:55:21;;;;;;;;;;;;;;;14.89;86.06;99986.72;4909080;28;19922;-85
2023/05/16 05:57:50;;;;;;;;;;;;;;;14.74;86.56;99984.84;4945833;28;20032;-85
2023/05/16 06:00:18;;;;;;;;;;;;;;;14.65;87.32;99985.06;4928550;28;20043;-86
2023/05/16 06:02:47;;;;;;;;;;;;;;;14.47;89.15;99977.34;4941096;28;20062;-83
2023/05/16 06:05:14;;;;;;;;;;;;;;;14.48;89.35;99974.47;4957449;28;20013;-85
2023/05/16 06:07:46;;;;;;;;;;;;;;;14.15;89.41;99909.78;4951528;28;19922;-85
2023/05/16 06:10:18;;;;;;;;;;;;;;;14.50;89.07;99952.94;4974505;28;19926;-83
2023/05/16 06:12:45;;;;;;;;;;;;;;;14.43;89.09;99950.13;4955482;28;20024;-83
2023/05/16 06:15:11;;;;;;;;;;;;;;;14.48;88.38;99939.75;4972998;28;19925;-83
2023/05/16 06:17:41;;;;;;;;;;;;;;;14.41;89.11;99959.31;4951436;28;20243;-86
2023/05/16 06:20:20;;;;;;;;;;;;;;;14.08;89.19;99888.31;4926037;28;20241;-87
2023/05/16 06:22:47;;;;;;;;;;;;;;;14.28;89.28;99941.22;4939147;28;19961;-82
2023/05/16 06:25:13;;;;;;;;;;;;;;;14.28;89.99;99952.72;4932028;28;19922;-83
2023/05/16 06:27:40;;;;;;;;;;;;;;;14.35;88.76;99920.81;4950471;28;19975;-85
2023/05/16 06:30:07;;;;;;;;;;;;;;;14.30;89.41;99908.00;4972400;28;19922;-84
2023/05/16 06:32:42;;;;;;;;;;;;;;;14.32;89.98;99947.84;4968603;28;19922;-81
2023/05/16 06:35:19;;;;;;;;;;;;;;;14.29;88.65;99965.06;4938096;28;19934;-83
2023/05/16 06:37:46;;;;;;;;;;;;;;;14.19;88.85;99964.47;4917641;28;19933;-81
2023/05/16 06:40:19;;;;;;;;;;;;;;;14.15;89.40;99963.16;4896499;28;20060;-87
2023/05/16 06:42:52;;;;;;;;;;;;;;;13.87;91.43;99942.28;4910902;28;20193;-85
2023/05/16 06:45:22;;;;;;;;;;;;;;;14.13;91.30;99975.84;4908565;28;19923;-82
2023/05/16 06:47:51;;;;;;;;;;;;;;;14.10;91.67;99976.19;4910461;29;19930;-85
2023/05/16 06:50:21;;;;;;;;;;;;;;;14.17;91.19;99993.16;4939207;28;20257;-84
2023/05/16 06:52:48;;;;;;;;;;;;;;;14.20;90.68;99987.50;4988170;28;20017;-84
2023/05/16 06:55:17;;;;;;;;;;;;;;;14.28;89.88;99984.78;4960088;28;20291;-81
2023/05/16 06:57:43;;;;;;;;;;;;;;;14.29;89.13;99990.94;4972279;28;20517;-83
2023/05/16 07:00:17;;;;;;;;;;;;;;;14.27;89.01;99972.44;4944246;28;20368;-84
2023/05/16 07:02:44;;;;;;;;;;;;;;;14.16;90.99;99974.66;4968187;28;20170;-85
2023/05/16 07:05:11;;;;;;;;;;;;;;;14.19;90.63;99983.16;4967749;28;20159;-82
2023/05/16 07:07:44;;;;;;;;;;;;;;;14.15;91.73;99989.00;4958406;28;19976;-87
2023/05/16 07:10:11;;;;;;;;;;;;;;;14.16;92.44;99993.34;4960261;28;19929;-82
2023/05/16 07:12:40;;;;;;;;;;;;;;;14.10;91.61;99993.06;4966448;28;19996;-84
2023/05/16 07:15:07;;;;;;;;;;;;;;;14.21;91.54;99991.00;4974189;28;20275;-83
2023/05/16 07:17:36;;;;;;;;;;;;;;;14.11;91.55;99993.88;4964380;28;20405;-83
2023/05/16 07:20:12;;;;;;;;;;;;;;;14.15;91.79;99984.53;4981098;28;19922;-84
2023/05/16 07:22:39;;;;;;;;;;;;;;;14.27;90.59;99991.13;4971590;28;20012;-82
2023/05/16 07:25:11;;;;;;;;;;;;;;;14.33;89.95;99982.41;4966540;28;20225;-82
2023/05/16 07:27:40;;;;;;;;;;;;;;;14.42;89.08;99990.38;4992173;28;19968;-84
2023/05/16 07:30:08;;;;;;;;;;;;;;;14.37;89.30;99982.03;4974473;28;19926;-82
2023/05/16 07:32:36;;;;;;;;;;;;;;;14.28;89.92;99984.78;4954441;28;19921;-85
2023/05/16 07:35:06;;;;;;;;;;;;;;;14.27;90.68;99980.44;4938839;28;20297;-83
2023/05/16 07:37:33;;;;;;;;;;;;;;;13.98;90.82;99930.41;4970524;28;19926;-85
2023/05/16 07:40:00;;;;;;;;;;;;;;;14.29;91.25;99975.75;4960094;28;19953;-85
2023/05/16 07:42:27;;;;;;;;;;;;;;;14.38;90.90;99959.69;4931212;28;20356;-85
2023/05/16 07:44:53;;;;;;;;;;;;;;;14.29;91.33;99951.72;4942668;28;19977;-83
2023/05/16 07:47:25;;;;;;;;;;;;;;;14.41;89.77;99954.81;4908537;28;20008;-81
2023/05/16 07:49:59;;;;;;;;;;;;;;;14.34;90.65;99953.84;4936768;28;19952;-84
2023/05/16 07:52:27;;;;;;;;;;;;;;;14.00;91.32;99906.19;4926848;28;19929;-84
2023/05/16 07:54:57;;;;;;;;;;;;;;;14.32;91.44;99955.88;4922142;28;19928;-83
2023/05/16 07:57:23;;;;;;;;;;;;;;;14.32;91.54;99963.88;4954169;28;19943;-83
2023/05/16 07:59:51;;;;;;;;;;;;;;;14.39;91.65;99969.34;4979340;28;19921;-82
2023/05/16 08:02:24;;;;;;;;;;;;;;;14.41;90.97;99964.66;4979482;28;19925;-80
2023/05/16 08:04:51;;;;;;;;;;;;;;;14.46;90.53;99971.13;4944473;28;19921;-81
2023/05/16 08:07:18;;;;;;;;;;;;;;;14.47;90.37;99963.97;4954381;28;19930;-83
2023/05/16 08:09:45;;;;;;;;;;;;;;;14.56;89.92;99972.78;4953964;28;20147;-81
2023/05/16 08:12:12;;;;;;;;;;;;;;;14.66;88.72;99976.91;4949233;28;19932;-81
2023/05/16 08:14:39;;;;;;;;;;;;;;;14.56;89.50;99975.44;4996836;28;19932;-81
2023/05/16 08:17:08;;;;;;;;;;;;;;;14.52;89.91;99980.28;4976395;28;19925;-79
2023/05/16 08:19:35;;;;;;;;;;;;;;;14.52;90.53;99986.47;4980125;28;20305;-81
2023/05/16 08:22:05;;;;;;;;;;;;;;;14.55;90.44;99984.47;4983372;28;19988;-81
2023/05/16 08:24:32;;;;;;;;;;;;;;;14.51;90.89;99984.81;4978050;28;20174;-79
2023/05/16 08:26:59;;;;;;;;;;;;;;;14.60;90.30;99990.94;4971682;28;20079;-80
2023/05/16 08:29:29;;;;;;;;;;;;;;;14.60;90.98;99998.97;4915445;28;20013;-80
2023/05/16 08:31:58;;;;;;;;;;;;;;;14.61;90.79;100000.63;4957847;28;19921;-80
2023/05/16 08:34:26;;;;;;;;;;;;;;;14.71;90.70;100000.41;4936626;28;20335;-83
2023/05/16 08:36:53;;;;;;;;;;;;;;;14.68;90.34;100001.56;4905968;28;19975;-83
2023/05/16 08:39:20;;;;;;;;;;;;;;;14.63;91.16;99997.78;4946207;28;19921;-80
2023/05/16 08:41:47;;;;;;;;;;;;;;;14.48;90.14;99929.06;4962533;28;19922;-78
2023/05/16 08:44:20;;;;;;;;;;;;;;;14.71;90.99;99992.38;4976152;28;20383;-79
2023/05/16 08:46:53;;;;;;;;;;;;;;;14.73;90.59;99993.03;4988053;28;19971;-79
2023/05/16 08:49:26;;;;;;;;;;;;;;;14.74;90.86;99997.38;4963628;28;19922;-79
2023/05/16 08:51:55;;;;;;;;;;;;;;;14.71;91.85;99979.84;4930354;28;19933;-79
2023/05/16 08:54:22;;;;;;;;;;;;;;;14.80;90.73;99974.44;4959551;28;20376;-81
2023/05/16 08:56:52;;;;;;;;;;;;;;;14.89;90.22;99970.69;4960182;28;19922;-79
2023/05/16 08:59:20;;;;;;;;;;;;;;;14.94;89.92;99971.81;4962902;28;19979;-82
2023/05/16 09:01:47;;;;;;;;;;;;;;;14.98;90.16;99982.13;4945710;28;19928;-79
2023/05/16 09:04:15;;;;;;;;;;;;;;;14.99;88.81;99981.13;4947932;28;20339;-80
2023/05/16 09:06:44;;;;;;;;;;;;;;;14.61;90.22;99941.03;4939895;28;20364;-80
2023/05/16 09:09:11;;;;;;;;;;;;;;;14.94;90.02;99979.81;4940861;28;20303;-78
2023/05/16 09:11:38;;;;;;;;;;;;;;;15.01;89.33;99985.28;4931667;28;19938;-80
2023/05/16 09:14:10;;;;;;;;;;;;;;;14.49;88.79;99916.53;4937486;28;19921;-81
2023/05/16 09:16:41;;;;;;;;;;;;;;;14.94;89.37;99989.69;4962021;28;20103;-79
2023/05/16 09:19:11;;;;;;;;;;;;;;;14.96;89.32;99993.84;4968915;28;19922;-80
2023/05/16 09:21:38;;;;;;;;;;;;;;;14.97;89.58;99986.66;4979116;28;19927;-79
2023/05/16 09:24:07;;;;;;;;;;;;;;;14.84;90.20;99983.78;4971919;28;19929;-80
2023/05/16 09:26:38;;;;;;;;;;;;;;;14.97;89.86;99992.00;4996318;28;19932;-80
2023/05/16 09:29:11;;;;;;;;;;;;;;;15.03;90.00;99988.63;4960271;28;19925;-79
2023/05/16 09:31:39;;;;;;;;;;;;;;;15.04;90.04;99982.25;4949757;28;19922;-78
2023/05/16 09:34:16;;;;;;;;;;;;;;;15.03;89.61;99983.28;4946884;28;20070;-79
2023/05/16 09:36:45;;;;;;;;;;;;;;;15.17;88.60;99985.16;4983471;28;19921;-78
2023/05/16 09:39:17;;;;;;;;;;;;;;;15.11;89.82;99982.38;4942055;28;19930;-80
2023/05/16 09:41:44;;;;;;;;;;;;;;;15.18;88.51;99980.63;4959264;28;19929;-81
2023/05/16 09:44:11;;;;;;;;;;;;;;;15.27;88.04;99981.41;4967944;28;19926;-79
2023/05/16 09:46:38;;;;;;;;;;;;;;;15.22;88.58;99975.75;4988355;28;19921;-79
2023/05/16 09:49:05;;;;;;;;;;;;;;;15.23;87.67;99982.75;4989137;28;19925;-79
2023/05/16 09:51:33;;;;;;;;;;;;;;;15.31;88.04;99980.81;4946027;28;19930;-79
2023/05/16 09:54:13;;;;;;;;;;;;;;;15.38;87.89;99988.97;4951626;28;19921;-79
2023/05/16 09:56:52;;;;;;;;;;;;;;;15.33;86.00;99988.69;4949399;28;19922;-79
2023/05/16 09:59:19;;;;;;;;;;;;;;;15.32;87.94;99997.72;4968806;28;19997;-81
2023/05/16 10:01:46;;;;;;;;;;;;;;;15.31;88.16;100012.09;4981512;28;19925;-82
2023/05/16 10:04:15;;;;;;;;;;;;;;;15.23;88.56;100010.31;4931072;28;19930;-82
2023/05/16 10:06:44;;;;;;;;;;;;;;;14.93;88.46;99964.00;4920640;28;19921;-82
2023/05/16 10:09:17;;;;;;;;;;;;;;;15.25;89.31;100019.00;4955113;28;19922;-83
2023/05/16 10:11:47;;;;;;;;;;;;;;;15.24;90.30;100017.31;4942227;28;19921;-82
2023/05/16 10:14:18;;;;;;;;;;;;;;;15.00;90.81;99966.75;4956907;28;19936;-84
2023/05/16 10:16:50;;;;;;;;;;;;;;;15.29;90.01;100012.28;4955937;28;19925;-83
2023/05/16 10:19:22;;;;;;;;;;;;;;;15.21;90.04;100001.66;4977883;28;19956;-83
2023/05/16 10:21:51;;;;;;;;;;;;;;;15.21;92.00;99990.13;4990289;28;19926;-82
2023/05/16 10:24:21;;;;;;;;;;;;;;;15.17;91.93;99995.84;4977632;28;19921;-83
2023/05/16 10:26:53;;;;;;;;;;;;;;;15.21;90.92;100000.81;4961626;28;19922;-81
2023/05/16 10:29:20;;;;;;;;;;;;;;;15.22;90.94;100002.47;4964495;28;20273;-83
2023/05/16 10:31:47;;;;;;;;;;;;;;;15.22;91.17;99987.28;4940127;28;19928;-83
2023/05/16 10:34:15;;;;;;;;;;;;;;;15.25;90.15;99980.75;4937518;28;19926;-83
2023/05/16 10:36:47;;;;;;;;;;;;;;;15.26;89.87;99982.41;4952151;28;19960;-82
2023/05/16 10:39:15;;;;;;;;;;;;;;;15.24;89.40;99979.06;4933134;28;19921;-81
2023/05/16 10:41:42;;;;;;;;;;;;;;;15.16;89.26;99986.16;4939818;28;19944;-81
2023/05/16 10:44:13;;;;;;;;;;;;;;;15.10;89.17;99976.19;4957295;28;19925;-80
2023/05/16 10:46:40;;;;;;;;;;;;;;;15.11;89.73;99975.16;4984397;28;19921;-81
2023/05/16 10:49:20;;;;;;;;;;;;;;;15.15;89.21;99986.34;4952671;28;20177;-81
2023/05/16 10:52:01;;;;;;;;;;;;;;;15.14;89.43;99980.16;4930714;28;20426;-83
2023/05/16 10:54:35;;;;;;;;;;;;;;;14.94;90.12;99957.63;4925889;28;20247;-83
2023/05/16 10:57:03;;;;;;;;;;;;;;;15.15;88.81;99981.81;4948042;28;19921;-81
2023/05/16 10:59:38;;;;;;;;;;;;;;;15.20;88.57;99983.13;4947265;28;19925;-80
2023/05/16 11:02:19;;;;;;;;;;;;;;;15.23;87.88;99977.41;4948723;28;19957;-84
2023/05/16 11:04:50;;;;;;;;;;;;;;;15.18;88.06;99981.47;4940581;28;19922;-82
2023/05/16 11:07:18;;;;;;;;;;;;;;;15.25;88.26;99970.06;4976680;28;20090;-83
2023/05/16 11:09:51;;;;;;;;;;;;;;;15.15;88.00;99976.47;4988974;28;20004;-83
2023/05/16 11:12:22;;;;;;;;;;;;;;;15.08;88.72;99983.56;4969237;28;20203;-82
2023/05/16 11:14:54;;;;;;;;;;;;;;;15.12;89.16;99981.34;4977744;28;20261;-83
2023/05/16 11:17:22;;;;;;;;;;;;;;;15.13;88.82;99972.31;4948663;28;19972;-81
2023/05/16 11:19:58;;;;;;;;;;;;;;;15.12;88.52;99966.16;4952753;28;20265;-81
2023/05/16 11:22:27;;;;;;;;;;;;;;;15.12;89.46;99963.47;4956201;28;19976;-82
2023/05/16 11:25:04;;;;;;;;;;;;;;;15.10;90.11;99954.81;4969697;28;19929;-80
2023/05/16 11:27:32;;;;;;;;;;;;;;;15.16;89.82;99946.03;4941304;28;19982;-83
2023/05/16 11:30:12;;;;;;;;;;;;;;;15.16;89.81;99962.09;4973140;28;19991;-81
2023/05/16 11:32:40;;;;;;;;;;;;;;;15.17;89.85;99947.72;4964186;28;20050;-83
2023/05/16 11:35:08;;;;;;;;;;;;;;;15.22;90.45;99949.84;4947437;28;19930;-83
2023/05/16 11:37:39;;;;;;;;;;;;;;;15.29;89.31;99944.59;4948863;28;20354;-80
2023/05/16 11:40:07;;;;;;;;;;;;;;;15.29;89.22;99950.78;4949636;28;20334;-80
2023/05/16 11:42:36;;;;;;;;;;;;;;;15.27;89.36;99946.63;4934692;28;20363;-81
2023/05/16 11:45:06;;;;;;;;;;;;;;;14.99;88.23;99925.84;4929899;28;19948;-82
2023/05/16 11:47:46;;;;;;;;;;;;;;;15.25;89.57;99960.19;4936615;28;19927;-82
2023/05/16 11:50:14;;;;;;;;;;;;;;;15.25;90.32;99962.84;4944912;28;19922;-82
2023/05/16 11:52:55;;;;;;;;;;;;;;;15.29;90.89;99977.53;4921502;28;19921;-81
2023/05/16 11:55:37;;;;;;;;;;;;;;;14.97;91.21;99933.19;4908248;28;20265;-83
2023/05/16 11:58:20;;;;;;;;;;;;;;;15.38;90.07;99956.88;4914766;28;19929;-82
2023/05/16 12:00:48;;;;;;;;;;;;;;;15.35;91.05;99963.41;4963007;28;20553;-82
2023/05/16 12:03:17;;;;;;;;;;;;;;;15.41;90.75;99964.50;4974746;28;20624;-82
2023/05/16 12:05:55;;;;;;;;;;;;;;;15.44;90.87;99969.50;4956458;28;19921;-81
2023/05/16 12:08:25;;;;;;;;;;;;;;;15.39;92.65;99975.41;4949236;28;20704;-79
2023/05/16 12:10:55;;;;;;;;;;;;;;;15.42;91.06;99966.19;4957567;28;19940;-82
2023/05/16 12:13:23;;;;;;;;;;;;;;;15.41;91.67;99969.03;4955714;28;20613;-82
2023/05/16 12:15:51;;;;;;;;;;;;;;;15.41;91.48;99974.38;4966643;28;20299;-80
2023/05/16 12:18:20;;;;;;;;;;;;;;;15.41;91.56;99975.22;4962584;28;19925;-80
2023/05/16 12:20:47;;;;;;;;;;;;;;;15.49;91.34;99977.00;4977205;28;20027;-82
2023/05/16 12:23:13;;;;;;;;;;;;;;;15.46;90.99;99975.53;4977495;28;19922;-80
2023/05/16 12:25:48;;;;;;;;;;;;;;;15.49;91.26;99983.16;4970847;28;20007;-82
2023/05/16 12:28:16;;;;;;;;;;;;;;;15.51;90.15;99981.16;4967418;28;20265;-82
2023/05/16 12:30:46;;;;;;;;;;;;;;;15.57;90.47;99977.72;4977406;28;20001;-80
2023/05/16 12:33:16;;;;;;;;;;;;;;;15.56;90.58;99984.09;4962574;28;19921;-82
2023/05/16 12:35:46;;;;;;;;;;;;;;;15.53;89.60;99979.09;4958731;28;19922;-81
2023/05/16 12:38:18;;;;;;;;;;;;;;;15.25;89.78;99912.03;4957722;28;20127;-82
2023/05/16 12:40:48;;;;;;;;;;;;;;;15.59;89.55;99967.66;4948801;28;19941;-82
2023/05/16 12:43:25;;;;;;;;;;;;;;;15.66;89.65;99969.63;4950777;28;19925;-82
2023/05/16 12:45:52;;;;;;;;;;;;;;;15.63;90.39;99962.75;4965012;28;20019;-83
2023/05/16 12:48:20;;;;;;;;;;;;;;;15.68;89.80;99970.25;4976026;28;20150;-81
2023/05/16 12:50:48;;;;;;;;;;;;;;;15.60;88.50;99966.63;4943326;28;20012;-83
2023/05/16 12:53:21;;;;;;;;;;;;;;;15.62;89.59;99966.47;4934347;28;20406;-83